sensor_id;sensor_type;location;lat;lon;timestamp;temperature;humidity
18648;DHT22;9453;50.294;18.644;2023-02-14T05:03:04;4.50;99.90
18648;DHT22;9453;50.294;18.644;2023-02-14T05:05:31;4.50;99.90
18648;DHT22;9453;50.294;18.644;2023-02-14T05:07:58;4.60;99.90
18648;DHT22;9453;50.294;18.644;2023-02-14T05:10:28;4.50;99.90
18648;DHT22;9453;50.294;18.644;2023-02-14T05:12:57;4.50;99.90
18648;DHT22;9453;50.294;18.644;2023-02-14T05:15:24;4.60;99.90
18648;DHT22;9453;50.294;18.644;2023-02-14T05:17:52;4.60;99.90
18648;DHT22;9453;50.294;18.644;2023-02-14T05:20:20;4.60;99.90
18648;DHT22;9453;50.294;18.644;2023-02-14T05:22:47;4.60;99.90
18648;DHT22;9453;50.294;18.644;2023-02-14T05:25:14;4.60;99.90
18648;DHT22;9453;50.294;18.644;2023-02-14T05:27:41;4.60;99.90
18648;DHT22;9453;50.294;18.644;2023-02-14T05:30:10;4.60;99.90
18648;DHT22;9453;50.294;18.644;2023-02-14T05:32:37;4.70;99.90
18648;DHT22;9453;50.294;18.644;2023-02-14T05:35:05;4.70;99.90
18648;DHT22;9453;50.294;18.644;2023-02-14T05:37:36;4.70;99.90
18648;DHT22;9453;50.294;18.644;2023-02-14T05:40:04;4.80;99.90
18648;DHT22;9453;50.294;18.644;2023-02-14T05:42:32;4.90;99.90
18648;DHT22;9453;50.294;18.644;2023-02-14T05:45:01;4.90;99.90
18648;DHT22;9453;50.294;18.644;2023-02-14T05:47:29;4.90;99.90
18648;DHT22;9453;50.294;18.644;2023-02-14T05:49:56;4.80;99.90
18648;DHT22;9453;50.294;18.644;2023-02-14T05:52:23;4.90;99.90
18648;DHT22;9453;50.294;18.644;2023-02-14T05:54:52;4.80;99.90
18648;DHT22;9453;50.294;18.644;2023-02-14T05:57:19;4.70;99.90
18648;DHT22;9453;50.294;18.644;2023-02-14T05:59:47;4.50;99.90
18648;DHT22;9453;50.294;18.644;2023-02-14T06:02:14;4.70;99.90
18648;DHT22;9453;50.294;18.644;2023-02-14T06:04:41;4.70;99.90
18648;DHT22;9453;50.294;18.644;2023-02-14T06:07:08;4.60;99.90
18648;DHT22;9453;50.294;18.644;2023-02-14T06:09:35;4.60;99.90
18648;DHT22;9453;50.294;18.644;2023-02-14T06:12:05;4.60;99.90
18648;DHT22;9453;50.294;18.644;2023-02-14T06:14:33;4.70;99.90
18648;DHT22;9453;50.294;18.644;2023-02-14T06:17:04;4.70;99.90
18648;DHT22;9453;50.294;18.644;2023-02-14T06:19:32;4.70;99.90
18648;DHT22;9453;50.294;18.644;2023-02-14T06:22:05;4.70;99.90
18648;DHT22;9453;50.294;18.644;2023-02-14T06:24:32;4.80;99.90
18648;DHT22;9453;50.294;18.644;2023-02-14T06:27:01;5.00;99.90
18648;DHT22;9453;50.294;18.644;2023-02-14T06:29:29;4.60;99.90
18648;DHT22;9453;50.294;18.644;2023-02-14T06:31:56;4.70;99.90
18648;DHT22;9453;50.294;18.644;2023-02-14T06:34:33;4.70;99.90
18648;DHT22;9453;50.294;18.644;2023-02-14T06:37:00;4.80;99.90
18648;DHT22;9453;50.294;18.644;2023-02-14T06:39:27;4.80;99.90
18648;DHT22;9453;50.294;18.644;2023-02-14T06:41:54;4.70;99.90
18648;DHT22;9453;50.294;18.644;2023-02-14T06:45:00;4.80;99.90
18648;DHT22;9453;50.294;18.644;2023-02-14T06:47:27;4.80;99.90
18648;DHT22;9453;50.294;18.644;2023-02-14T06:49:54;4.80;99.90
18648;DHT22;9453;50.294;18.644;2023-02-14T06:52:21;4.90;99.90
18648;DHT22;9453;50.294;18.644;2023-02-14T06:54:49;4.90;99.90
18648;DHT22;9453;50.294;18.644;2023-02-14T06:57:15;4.90;99.90
18648;DHT22;9453;50.294;18.644;2023-02-14T06:59:42;4.90;99.90
18648;DHT22;9453;50.294;18.644;2023-02-14T07:02:11;5.10;99.90
18648;DHT22;9453;50.294;18.644;2023-02-14T07:04:38;4.80;99.90
18648;DHT22;9453;50.294;18.644;2023-02-14T07:07:05;4.90;99.90
18648;DHT22;9453;50.294;18.644;2023-02-14T07:09:32;4.90;99.90
18648;DHT22;9453;50.294;18.644;2023-02-14T07:11:59;4.90;99.90
18648;DHT22;9453;50.294;18.644;2023-02-14T07:14:26;4.90;99.90
18648;DHT22;9453;50.294;18.644;2023-02-14T07:16:53;4.80;99.90
18648;DHT22;9453;50.294;18.644;2023-02-14T07:19:21;4.80;99.90
18648;DHT22;9453;50.294;18.644;2023-02-14T07:21:48;4.70;99.90
18648;DHT22;9453;50.294;18.644;2023-02-14T07:24:15;4.90;99.90
18648;DHT22;9453;50.294;18.644;2023-02-14T07:26:42;4.90;99.90
18648;DHT22;9453;50.294;18.644;2023-02-14T07:29:09;5.00;99.90
18648;DHT22;9453;50.294;18.644;2023-02-14T07:31:36;5.00;99.90
18648;DHT22;9453;50.294;18.644;2023-02-14T07:34:03;5.00;99.90
18648;DHT22;9453;50.294;18.644;2023-02-14T07:36:31;5.10;99.90
18648;DHT22;9453;50.294;18.644;2023-02-14T07:38:59;5.10;99.90
18648;DHT22;9453;50.294;18.644;2023-02-14T07:41:25;5.10;99.90
18648;DHT22;9453;50.294;18.644;2023-02-14T07:43:52;5.10;99.90
18648;DHT22;9453;50.294;18.644;2023-02-14T07:46:22;5.10;99.90
18648;DHT22;9453;50.294;18.644;2023-02-14T07:48:49;5.40;99.90
18648;DHT22;9453;50.294;18.644;2023-02-14T07:51:16;5.30;99.90
18648;DHT22;9453;50.294;18.644;2023-02-14T07:53:44;5.30;99.90
18648;DHT22;9453;50.294;18.644;2023-02-14T07:56:11;5.30;99.90
18648;DHT22;9453;50.294;18.644;2023-02-14T07:58:38;5.30;99.90
18648;DHT22;9453;50.294;18.644;2023-02-14T08:01:05;5.30;99.90
18648;DHT22;9453;50.294;18.644;2023-02-14T08:03:33;5.40;99.90
18648;DHT22;9453;50.294;18.644;2023-02-14T08:06:03;5.50;99.90
18648;DHT22;9453;50.294;18.644;2023-02-14T08:08:31;5.50;99.90
18648;DHT22;9453;50.294;18.644;2023-02-14T08:10:59;5.60;99.90
18648;DHT22;9453;50.294;18.644;2023-02-14T08:13:29;5.70;99.90
18648;DHT22;9453;50.294;18.644;2023-02-14T08:16:00;5.70;99.90
18648;DHT22;9453;50.294;18.644;2023-02-14T08:18:34;5.70;99.90
18648;DHT22;9453;50.294;18.644;2023-02-14T08:21:02;5.70;99.90
18648;DHT22;9453;50.294;18.644;2023-02-14T08:23:30;5.70;99.90
18648;DHT22;9453;50.294;18.644;2023-02-14T08:25:58;5.60;99.90
18648;DHT22;9453;50.294;18.644;2023-02-14T08:28:25;5.60;99.90
18648;DHT22;9453;50.294;18.644;2023-02-14T08:30:53;5.50;99.90
18648;DHT22;9453;50.294;18.644;2023-02-14T08:33:20;5.60;99.90
18648;DHT22;9453;50.294;18.644;2023-02-14T08:35:47;5.50;99.90
18648;DHT22;9453;50.294;18.644;2023-02-14T08:38:14;5.50;99.90
18648;DHT22;9453;50.294;18.644;2023-02-14T08:40:41;5.50;99.90
18648;DHT22;9453;50.294;18.644;2023-02-14T08:43:12;5.30;99.90
18648;DHT22;9453;50.294;18.644;2023-02-14T08:45:39;5.40;99.90
18648;DHT22;9453;50.294;18.644;2023-02-14T08:48:08;5.60;99.90
18648;DHT22;9453;50.294;18.644;2023-02-14T08:50:39;5.50;99.90
18648;DHT22;9453;50.294;18.644;2023-02-14T08:53:07;5.50;99.90
18648;DHT22;9453;50.294;18.644;2023-02-14T08:55:34;5.40;99.90
18648;DHT22;9453;50.294;18.644;2023-02-14T08:58:01;5.40;99.90
18648;DHT22;9453;50.294;18.644;2023-02-14T09:00:30;5.50;99.90
18648;DHT22;9453;50.294;18.644;2023-02-14T09:02:57;5.40;99.90
18648;DHT22;9453;50.294;18.644;2023-02-14T09:05:24;5.60;99.90
18648;DHT22;9453;50.294;18.644;2023-02-14T09:07:53;5.50;99.90
18648;DHT22;9453;50.294;18.644;2023-02-14T09:10:22;5.60;99.90
18648;DHT22;9453;50.294;18.644;2023-02-14T09:12:49;5.70;99.90
18648;DHT22;9453;50.294;18.644;2023-02-14T09:15:16;5.80;99.90
18648;DHT22;9453;50.294;18.644;2023-02-14T09:17:45;5.70;99.90
18648;DHT22;9453;50.294;18.644;2023-02-14T09:20:13;5.80;99.90
18648;DHT22;9453;50.294;18.644;2023-02-14T09:22:41;5.70;99.90
18648;DHT22;9453;50.294;18.644;2023-02-14T09:25:08;5.50;99.90
18648;DHT22;9453;50.294;18.644;2023-02-14T09:27:35;5.70;99.90
18648;DHT22;9453;50.294;18.644;2023-02-14T09:30:03;5.70;99.90
18648;DHT22;9453;50.294;18.644;2023-02-14T09:32:30;5.80;99.90
18648;DHT22;9453;50.294;18.644;2023-02-14T09:34:58;5.70;99.90
18648;DHT22;9453;50.294;18.644;2023-02-14T09:37:42;5.70;99.90
18648;DHT22;9453;50.294;18.644;2023-02-14T09:40:12;5.90;99.90
18648;DHT22;9453;50.294;18.644;2023-02-14T09:42:50;5.80;99.90
18648;DHT22;9453;50.294;18.644;2023-02-14T09:45:20;5.90;99.90
18648;DHT22;9453;50.294;18.644;2023-02-14T09:47:51;5.90;99.90
18648;DHT22;9453;50.294;18.644;2023-02-14T09:50:24;5.80;99.90
18648;DHT22;9453;50.294;18.644;2023-02-14T09:52:56;5.90;99.90
18648;DHT22;9453;50.294;18.644;2023-02-14T09:55:29;5.70;99.90
18648;DHT22;9453;50.294;18.644;2023-02-14T09:58:06;5.80;99.90
18648;DHT22;9453;50.294;18.644;2023-02-14T10:00:43;5.90;99.90
18648;DHT22;9453;50.294;18.644;2023-02-14T10:03:33;5.90;99.90
18648;DHT22;9453;50.294;18.644;2023-02-14T10:06:11;6.10;99.90
18648;DHT22;9453;50.294;18.644;2023-02-14T10:08:47;6.00;99.90
18648;DHT22;9453;50.294;18.644;2023-02-14T10:11:18;6.10;99.90
18648;DHT22;9453;50.294;18.644;2023-02-14T10:13:49;6.10;99.90
18648;DHT22;9453;50.294;18.644;2023-02-14T10:16:21;6.20;99.90
18648;DHT22;9453;50.294;18.644;2023-02-14T10:18:55;6.50;99.90
18648;DHT22;9453;50.294;18.644;2023-02-14T10:21:27;6.30;99.90
18648;DHT22;9453;50.294;18.644;2023-02-14T10:24:08;6.40;99.90
18648;DHT22;9453;50.294;18.644;2023-02-14T10:26:38;6.40;99.90
18648;DHT22;9453;50.294;18.644;2023-02-14T10:29:12;6.40;99.90
18648;DHT22;9453;50.294;18.644;2023-02-14T10:35:18;6.50;99.90
18648;DHT22;9453;50.294;18.644;2023-02-14T10:37:59;6.50;99.90
18648;DHT22;9453;50.294;18.644;2023-02-14T10:40:40;6.60;99.90
18648;DHT22;9453;50.294;18.644;2023-02-14T10:43:19;6.80;99.90
18648;DHT22;9453;50.294;18.644;2023-02-14T10:45:59;6.80;99.90
18648;DHT22;9453;50.294;18.644;2023-02-14T10:48:42;6.70;99.90
18648;DHT22;9453;50.294;18.644;2023-02-14T10:51:15;6.70;99.90
18648;DHT22;9453;50.294;18.644;2023-02-14T10:54:00;6.60;99.90
18648;DHT22;9453;50.294;18.644;2023-02-14T10:56:35;6.50;99.90
18648;DHT22;9453;50.294;18.644;2023-02-14T10:59:14;6.40;99.90
18648;DHT22;9453;50.294;18.644;2023-02-14T11:01:44;6.60;99.90
18648;DHT22;9453;50.294;18.644;2023-02-14T11:04:11;6.70;99.90
18648;DHT22;9453;50.294;18.644;2023-02-14T11:06:40;6.80;99.90
18648;DHT22;9453;50.294;18.644;2023-02-14T11:09:12;6.70;99.90
18648;DHT22;9453;50.294;18.644;2023-02-14T11:11:42;6.70;99.90
18648;DHT22;9453;50.294;18.644;2023-02-14T11:14:22;6.60;99.90
18648;DHT22;9453;50.294;18.644;2023-02-14T11:16:50;6.60;99.90
18648;DHT22;9453;50.294;18.644;2023-02-14T11:19:23;6.50;99.90
18648;DHT22;9453;50.294;18.644;2023-02-14T11:21:52;6.50;99.90
18648;DHT22;9453;50.294;18.644;2023-02-14T11:24:26;6.50;99.90
18648;DHT22;9453;50.294;18.644;2023-02-14T11:26:54;6.60;99.90
18648;DHT22;9453;50.294;18.644;2023-02-14T11:29:32;6.60;99.90
18648;DHT22;9453;50.294;18.644;2023-02-14T11:32:11;6.60;99.90
18648;DHT22;9453;50.294;18.644;2023-02-14T11:34:41;6.50;99.80
18648;DHT22;9453;50.294;18.644;2023-02-14T11:37:25;6.50;99.90
18648;DHT22;9453;50.294;18.644;2023-02-14T11:39:55;6.60;99.90
18648;DHT22;9453;50.294;18.644;2023-02-14T11:42:39;6.70;99.80
18648;DHT22;9453;50.294;18.644;2023-02-14T11:45:26;6.80;99.90
18648;DHT22;9453;50.294;18.644;2023-02-14T11:48:08;6.80;98.40
18648;DHT22;9453;50.294;18.644;2023-02-14T11:50:36;6.80;98.30
18648;DHT22;9453;50.294;18.644;2023-02-14T11:53:09;6.80;97.20
18648;DHT22;9453;50.294;18.644;2023-02-14T11:55:38;6.90;98.10
18648;DHT22;9453;50.294;18.644;2023-02-14T11:58:07;7.00;98.00
18648;DHT22;9453;50.294;18.644;2023-02-14T12:00:50;7.00;98.10
18648;DHT22;9453;50.294;18.644;2023-02-14T12:03:18;7.00;98.20
18648;DHT22;9453;50.294;18.644;2023-02-14T12:05:48;6.90;98.20
18648;DHT22;9453;50.294;18.644;2023-02-14T12:08:23;6.90;97.70
18648;DHT22;9453;50.294;18.644;2023-02-14T12:11:02;6.90;97.80
18648;DHT22;9453;50.294;18.644;2023-02-14T12:13:31;6.80;97.30
18648;DHT22;9453;50.294;18.644;2023-02-14T12:15:58;6.90;97.60
18648;DHT22;9453;50.294;18.644;2023-02-14T12:18:37;6.90;97.10
18648;DHT22;9453;50.294;18.644;2023-02-14T12:21:30;6.90;97.00
18648;DHT22;9453;50.294;18.644;2023-02-14T12:24:04;6.80;96.60
18648;DHT22;9453;50.294;18.644;2023-02-14T12:26:39;6.70;97.20
18648;DHT22;9453;50.294;18.644;2023-02-14T12:29:19;6.80;97.10
18648;DHT22;9453;50.294;18.644;2023-02-14T12:31:48;6.90;96.70
18648;DHT22;9453;50.294;18.644;2023-02-14T12:34:16;7.10;96.60
18648;DHT22;9453;50.294;18.644;2023-02-14T12:36:57;7.00;95.60
18648;DHT22;9453;50.294;18.644;2023-02-14T12:39:33;7.00;95.70
18648;DHT22;9453;50.294;18.644;2023-02-14T12:42:11;7.00;95.30
18648;DHT22;9453;50.294;18.644;2023-02-14T12:44:47;7.00;96.10
18648;DHT22;9453;50.294;18.644;2023-02-14T12:47:20;6.90;95.10
18648;DHT22;9453;50.294;18.644;2023-02-14T12:50:24;6.80;95.60
18648;DHT22;9453;50.294;18.644;2023-02-14T12:55:50;6.80;96.40
18648;DHT22;9453;50.294;18.644;2023-02-14T12:58:40;6.60;96.90
18648;DHT22;9453;50.294;18.644;2023-02-14T13:01:31;6.60;97.30
18648;DHT22;9453;50.294;18.644;2023-02-14T13:04:34;6.60;97.80
18648;DHT22;9453;50.294;18.644;2023-02-14T13:07:09;6.60;97.80
18648;DHT22;9453;50.294;18.644;2023-02-14T13:09:46;6.50;96.90
18648;DHT22;9453;50.294;18.644;2023-02-14T13:12:27;6.50;96.50
18648;DHT22;9453;50.294;18.644;2023-02-14T13:15:12;6.60;96.00
18648;DHT22;9453;50.294;18.644;2023-02-14T13:20:24;6.70;95.60
18648;DHT22;9453;50.294;18.644;2023-02-14T13:22:56;6.80;95.50
18648;DHT22;9453;50.294;18.644;2023-02-14T13:25:42;6.70;95.50
18648;DHT22;9453;50.294;18.644;2023-02-14T13:28:15;6.80;95.60
18648;DHT22;9453;50.294;18.644;2023-02-14T13:30:43;6.60;95.70
18648;DHT22;9453;50.294;18.644;2023-02-14T13:33:24;6.60;96.50
18648;DHT22;9453;50.294;18.644;2023-02-14T13:35:55;6.60;96.90
18648;DHT22;9453;50.294;18.644;2023-02-14T13:38:23;6.50;96.60
18648;DHT22;9453;50.294;18.644;2023-02-14T13:40:52;6.50;96.60
18648;DHT22;9453;50.294;18.644;2023-02-14T13:43:46;6.60;96.90
18648;DHT22;9453;50.294;18.644;2023-02-14T13:46:19;6.60;96.90
18648;DHT22;9453;50.294;18.644;2023-02-14T13:51:15;6.70;96.20
18648;DHT22;9453;50.294;18.644;2023-02-14T13:53:44;6.80;95.70
18648;DHT22;9453;50.294;18.644;2023-02-14T13:56:32;6.90;95.30
18648;DHT22;9453;50.294;18.644;2023-02-14T13:59:02;6.80;95.30
18648;DHT22;9453;50.294;18.644;2023-02-14T14:01:37;6.80;95.50
18648;DHT22;9453;50.294;18.644;2023-02-14T14:07:16;6.60;96.30
18648;DHT22;9453;50.294;18.644;2023-02-14T14:10:09;6.60;96.10
18648;DHT22;9453;50.294;18.644;2023-02-14T14:12:44;6.60;95.90
18648;DHT22;9453;50.294;18.644;2023-02-14T14:15:16;6.60;96.40
18648;DHT22;9453;50.294;18.644;2023-02-14T14:17:47;6.60;96.70
18648;DHT22;9453;50.294;18.644;2023-02-14T14:20:40;6.60;96.60
18648;DHT22;9453;50.294;18.644;2023-02-14T14:23:28;6.60;97.30
18648;DHT22;9453;50.294;18.644;2023-02-14T14:25:56;6.50;97.20
18648;DHT22;9453;50.294;18.644;2023-02-14T14:28:25;6.50;96.70
18648;DHT22;9453;50.294;18.644;2023-02-14T14:30:52;6.40;96.60
18648;DHT22;9453;50.294;18.644;2023-02-14T14:33:26;6.40;96.40
18648;DHT22;9453;50.294;18.644;2023-02-14T14:35:55;6.30;96.90
18648;DHT22;9453;50.294;18.644;2023-02-14T14:38:23;6.40;97.20
18648;DHT22;9453;50.294;18.644;2023-02-14T14:40:50;6.40;97.70
18648;DHT22;9453;50.294;18.644;2023-02-14T14:43:25;6.40;97.30
18648;DHT22;9453;50.294;18.644;2023-02-14T14:46:10;6.30;97.20
18648;DHT22;9453;50.294;18.644;2023-02-14T14:48:41;6.30;97.10
18648;DHT22;9453;50.294;18.644;2023-02-14T14:51:18;6.30;96.80
18648;DHT22;9453;50.294;18.644;2023-02-14T14:53:51;6.20;96.80
18648;DHT22;9453;50.294;18.644;2023-02-14T14:56:21;6.20;97.10
18648;DHT22;9453;50.294;18.644;2023-02-14T14:58:50;6.20;97.30
18648;DHT22;9453;50.294;18.644;2023-02-14T15:01:29;6.20;98.00
18648;DHT22;9453;50.294;18.644;2023-02-14T15:04:09;6.20;97.80
18648;DHT22;9453;50.294;18.644;2023-02-14T15:06:36;6.10;98.10
18648;DHT22;9453;50.294;18.644;2023-02-14T15:09:12;6.10;98.20
18648;DHT22;9453;50.294;18.644;2023-02-14T15:11:40;6.10;98.40
18648;DHT22;9453;50.294;18.644;2023-02-14T15:14:26;6.10;98.40
18648;DHT22;9453;50.294;18.644;2023-02-14T15:16:57;6.10;98.10
18648;DHT22;9453;50.294;18.644;2023-02-14T15:19:29;6.20;98.00
18648;DHT22;9453;50.294;18.644;2023-02-14T15:22:01;6.10;98.10
18648;DHT22;9453;50.294;18.644;2023-02-14T15:24:29;6.10;97.90
18648;DHT22;9453;50.294;18.644;2023-02-14T15:27:00;6.10;97.90
18648;DHT22;9453;50.294;18.644;2023-02-14T15:29:29;6.10;98.00
18648;DHT22;9453;50.294;18.644;2023-02-14T15:31:59;6.00;97.90
18648;DHT22;9453;50.294;18.644;2023-02-14T15:34:31;6.00;97.90
18648;DHT22;9453;50.294;18.644;2023-02-14T15:37:01;5.90;98.30
18648;DHT22;9453;50.294;18.644;2023-02-14T15:39:34;5.90;98.40
18648;DHT22;9453;50.294;18.644;2023-02-14T15:42:03;5.90;98.20
18648;DHT22;9453;50.294;18.644;2023-02-14T15:44:31;5.90;98.20
18648;DHT22;9453;50.294;18.644;2023-02-14T15:47:00;6.00;98.30
18648;DHT22;9453;50.294;18.644;2023-02-14T15:49:34;6.00;98.20
18648;DHT22;9453;50.294;18.644;2023-02-14T15:52:04;6.00;98.00
18648;DHT22;9453;50.294;18.644;2023-02-14T15:54:36;6.00;98.00
18648;DHT22;9453;50.294;18.644;2023-02-14T15:57:04;5.90;98.00
18648;DHT22;9453;50.294;18.644;2023-02-14T15:59:33;5.90;98.20
18648;DHT22;9453;50.294;18.644;2023-02-14T16:02:03;5.90;98.40
18648;DHT22;9453;50.294;18.644;2023-02-14T16:04:41;5.90;98.50
18648;DHT22;9453;50.294;18.644;2023-02-14T16:07:23;6.00;98.90
18648;DHT22;9453;50.294;18.644;2023-02-14T16:10:20;6.00;98.50
18648;DHT22;9453;50.294;18.644;2023-02-14T16:12:57;6.00;98.30
18648;DHT22;9453;50.294;18.644;2023-02-14T16:15:26;5.90;98.40
18648;DHT22;9453;50.294;18.644;2023-02-14T16:17:53;5.80;98.40
18648;DHT22;9453;50.294;18.644;2023-02-14T16:20:26;5.70;98.70
18648;DHT22;9453;50.294;18.644;2023-02-14T16:23:19;5.70;98.90
18648;DHT22;9453;50.294;18.644;2023-02-14T16:25:47;5.70;99.20
18648;DHT22;9453;50.294;18.644;2023-02-14T16:28:15;5.70;99.40
18648;DHT22;9453;50.294;18.644;2023-02-14T16:30:43;5.70;99.40
18648;DHT22;9453;50.294;18.644;2023-02-14T16:33:15;5.70;99.40
18648;DHT22;9453;50.294;18.644;2023-02-14T16:35:45;5.80;99.60
18648;DHT22;9453;50.294;18.644;2023-02-14T16:38:13;5.90;99.20
18648;DHT22;9453;50.294;18.644;2023-02-14T16:40:42;5.90;99.20
18648;DHT22;9453;50.294;18.644;2023-02-14T16:43:12;5.90;99.30
18648;DHT22;9453;50.294;18.644;2023-02-14T16:45:39;6.00;98.80
18648;DHT22;9453;50.294;18.644;2023-02-14T16:48:07;5.90;98.80
18648;DHT22;9453;50.294;18.644;2023-02-14T16:50:36;5.80;99.20
18648;DHT22;9453;50.294;18.644;2023-02-14T16:53:10;5.80;99.30
18648;DHT22;9453;50.294;18.644;2023-02-14T16:55:39;5.70;99.50
18648;DHT22;9453;50.294;18.644;2023-02-14T16:58:06;5.70;99.60
18648;DHT22;9453;50.294;18.644;2023-02-14T17:00:34;5.70;99.80
18648;DHT22;9453;50.294;18.644;2023-02-14T17:03:01;5.70;99.90
18648;DHT22;9453;50.294;18.644;2023-02-14T17:05:36;5.60;99.90
18648;DHT22;9453;50.294;18.644;2023-02-14T17:08:05;5.70;99.90
18648;DHT22;9453;50.294;18.644;2023-02-14T17:10:33;5.70;99.90
18648;DHT22;9453;50.294;18.644;2023-02-14T17:13:01;5.70;99.90
18648;DHT22;9453;50.294;18.644;2023-02-14T17:15:29;5.70;99.90
18648;DHT22;9453;50.294;18.644;2023-02-14T17:18:03;5.70;99.80
18648;DHT22;9453;50.294;18.644;2023-02-14T17:20:32;5.60;99.90
18648;DHT22;9453;50.294;18.644;2023-02-14T17:23:00;5.70;99.90
18648;DHT22;9453;50.294;18.644;2023-02-14T17:25:29;5.70;99.90
18648;DHT22;9453;50.294;18.644;2023-02-14T17:27:56;5.70;99.90
18648;DHT22;9453;50.294;18.644;2023-02-14T17:30:25;5.80;99.90
18648;DHT22;9453;50.294;18.644;2023-02-14T17:32:52;5.90;99.90
18648;DHT22;9453;50.294;18.644;2023-02-14T17:35:20;6.00;99.90
18648;DHT22;9453;50.294;18.644;2023-02-14T17:37:47;6.10;99.80
18648;DHT22;9453;50.294;18.644;2023-02-14T17:40:14;6.10;99.20
18648;DHT22;9453;50.294;18.644;2023-02-14T17:42:43;6.10;99.50
18648;DHT22;9453;50.294;18.644;2023-02-14T17:45:10;6.10;99.50
18648;DHT22;9453;50.294;18.644;2023-02-14T17:50:13;6.20;99.30
18648;DHT22;9453;50.294;18.644;2023-02-14T17:52:42;6.20;99.20
18648;DHT22;9453;50.294;18.644;2023-02-14T17:55:10;6.20;99.20
18648;DHT22;9453;50.294;18.644;2023-02-14T17:57:38;6.30;99.30
18648;DHT22;9453;50.294;18.644;2023-02-14T18:00:08;6.30;99.10
18648;DHT22;9453;50.294;18.644;2023-02-14T18:02:36;6.20;99.00
18648;DHT22;9453;50.294;18.644;2023-02-14T18:05:06;6.40;99.00
18648;DHT22;9453;50.294;18.644;2023-02-14T18:07:34;6.10;98.70
18648;DHT22;9453;50.294;18.644;2023-02-14T18:10:01;6.10;98.90
18648;DHT22;9453;50.294;18.644;2023-02-14T18:12:28;6.00;98.60
18648;DHT22;9453;50.294;18.644;2023-02-14T18:14:55;5.90;99.00
18648;DHT22;9453;50.294;18.644;2023-02-14T18:17:24;5.80;99.20
18648;DHT22;9453;50.294;18.644;2023-02-14T18:19:50;5.70;99.40
18648;DHT22;9453;50.294;18.644;2023-02-14T18:22:18;5.70;99.80
18648;DHT22;9453;50.294;18.644;2023-02-14T18:24:45;5.60;99.80
18648;DHT22;9453;50.294;18.644;2023-02-14T18:27:12;5.60;99.90
18648;DHT22;9453;50.294;18.644;2023-02-14T18:29:40;5.60;99.90
18648;DHT22;9453;50.294;18.644;2023-02-14T18:32:13;5.60;99.90
18648;DHT22;9453;50.294;18.644;2023-02-14T18:34:41;5.60;99.90
18648;DHT22;9453;50.294;18.644;2023-02-14T18:37:11;5.60;99.90
18648;DHT22;9453;50.294;18.644;2023-02-14T18:39:38;5.50;99.90
18648;DHT22;9453;50.294;18.644;2023-02-14T18:42:05;5.50;99.90
18648;DHT22;9453;50.294;18.644;2023-02-14T18:44:32;5.50;99.90
18648;DHT22;9453;50.294;18.644;2023-02-14T18:47:01;5.50;99.90
18648;DHT22;9453;50.294;18.644;2023-02-14T18:52:51;5.20;99.90
18648;DHT22;9453;50.294;18.644;2023-02-14T18:55:18;5.40;99.90
18648;DHT22;9453;50.294;18.644;2023-02-14T18:57:45;5.40;99.90
18648;DHT22;9453;50.294;18.644;2023-02-14T19:00:13;5.40;99.90
18648;DHT22;9453;50.294;18.644;2023-02-14T19:02:40;5.40;99.90
18648;DHT22;9453;50.294;18.644;2023-02-14T19:05:08;5.40;99.90
18648;DHT22;9453;50.294;18.644;2023-02-14T19:07:35;5.30;99.90
18648;DHT22;9453;50.294;18.644;2023-02-14T19:10:05;5.30;99.90
18648;DHT22;9453;50.294;18.644;2023-02-14T19:12:33;5.30;99.90
18648;DHT22;9453;50.294;18.644;2023-02-14T19:15:01;5.40;99.90
18648;DHT22;9453;50.294;18.644;2023-02-14T19:17:28;5.40;99.90
18648;DHT22;9453;50.294;18.644;2023-02-14T19:19:55;5.40;99.90
18648;DHT22;9453;50.294;18.644;2023-02-14T19:22:22;5.30;99.90
18648;DHT22;9453;50.294;18.644;2023-02-14T19:24:50;5.40;99.90
18648;DHT22;9453;50.294;18.644;2023-02-14T19:27:20;5.40;99.90
18648;DHT22;9453;50.294;18.644;2023-02-14T19:29:48;5.40;99.90
18648;DHT22;9453;50.294;18.644;2023-02-14T19:32:16;5.50;99.90
18648;DHT22;9453;50.294;18.644;2023-02-14T19:34:43;5.50;99.90
18648;DHT22;9453;50.294;18.644;2023-02-14T19:37:10;5.50;99.90
18648;DHT22;9453;50.294;18.644;2023-02-14T19:39:37;5.50;99.90
18648;DHT22;9453;50.294;18.644;2023-02-14T19:42:04;5.60;99.90
18648;DHT22;9453;50.294;18.644;2023-02-14T19:44:33;5.50;99.90
18648;DHT22;9453;50.294;18.644;2023-02-14T19:47:00;5.50;99.90
18648;DHT22;9453;50.294;18.644;2023-02-14T19:49:29;5.50;99.90
18648;DHT22;9453;50.294;18.644;2023-02-14T19:51:56;5.60;99.90
18648;DHT22;9453;50.294;18.644;2023-02-14T19:54:24;5.60;99.90
18648;DHT22;9453;50.294;18.644;2023-02-14T19:56:51;5.60;99.90
18648;DHT22;9453;50.294;18.644;2023-02-14T19:59:20;5.60;99.90
18648;DHT22;9453;50.294;18.644;2023-02-14T20:01:50;5.60;99.90
18648;DHT22;9453;50.294;18.644;2023-02-14T20:04:19;5.60;99.90
18648;DHT22;9453;50.294;18.644;2023-02-14T20:06:47;5.50;99.90
18648;DHT22;9453;50.294;18.644;2023-02-14T20:09:15;5.50;99.90
18648;DHT22;9453;50.294;18.644;2023-02-14T20:11:43;5.50;99.90
18648;DHT22;9453;50.294;18.644;2023-02-14T20:14:15;5.50;99.90
18648;DHT22;9453;50.294;18.644;2023-02-14T20:16:43;5.60;99.90
18648;DHT22;9453;50.294;18.644;2023-02-14T20:19:14;5.60;99.90
18648;DHT22;9453;50.294;18.644;2023-02-14T20:21:42;5.50;99.90
18648;DHT22;9453;50.294;18.644;2023-02-14T20:24:11;5.70;99.90
18648;DHT22;9453;50.294;18.644;2023-02-14T20:26:39;5.70;99.90
18648;DHT22;9453;50.294;18.644;2023-02-14T20:29:08;5.60;99.90
18648;DHT22;9453;50.294;18.644;2023-02-14T20:31:39;5.60;99.90
18648;DHT22;9453;50.294;18.644;2023-02-14T20:34:07;5.70;99.90
18648;DHT22;9453;50.294;18.644;2023-02-14T20:36:37;5.60;99.90
18648;DHT22;9453;50.294;18.644;2023-02-14T20:39:10;5.60;99.90
18648;DHT22;9453;50.294;18.644;2023-02-14T20:41:38;5.50;99.90
18648;DHT22;9453;50.294;18.644;2023-02-14T20:44:07;5.50;99.90
18648;DHT22;9453;50.294;18.644;2023-02-14T20:46:34;5.60;99.90
18648;DHT22;9453;50.294;18.644;2023-02-14T20:49:01;5.60;99.90
18648;DHT22;9453;50.294;18.644;2023-02-14T20:51:28;5.70;99.90
18648;DHT22;9453;50.294;18.644;2023-02-14T20:53:57;5.80;99.90
18648;DHT22;9453;50.294;18.644;2023-02-14T20:56:24;5.80;99.90
18648;DHT22;9453;50.294;18.644;2023-02-14T20:58:51;5.80;99.90
18648;DHT22;9453;50.294;18.644;2023-02-14T21:01:20;5.80;99.90
18648;DHT22;9453;50.294;18.644;2023-02-14T21:03:49;5.80;99.90
18648;DHT22;9453;50.294;18.644;2023-02-14T21:06:17;5.90;99.90
18648;DHT22;9453;50.294;18.644;2023-02-14T21:08:45;5.80;99.90
18648;DHT22;9453;50.294;18.644;2023-02-14T21:11:16;5.70;99.90
18648;DHT22;9453;50.294;18.644;2023-02-14T21:13:43;5.80;99.90
18648;DHT22;9453;50.294;18.644;2023-02-14T21:16:11;5.80;99.90
18648;DHT22;9453;50.294;18.644;2023-02-14T21:18:41;5.80;99.90
18648;DHT22;9453;50.294;18.644;2023-02-14T21:21:14;5.80;99.90
18648;DHT22;9453;50.294;18.644;2023-02-14T21:23:41;5.80;99.90
18648;DHT22;9453;50.294;18.644;2023-02-14T21:26:08;5.80;99.90
18648;DHT22;9453;50.294;18.644;2023-02-14T21:28:37;5.90;99.90
18648;DHT22;9453;50.294;18.644;2023-02-14T21:31:04;5.80;99.90